createdAt,value
2022-11-29T00:02:25.117Z,101370.0
2022-11-29T00:07:25.095Z,101360.0
2022-11-29T00:12:25.026Z,101370.0
2022-11-29T00:17:25.040Z,101370.0
2022-11-29T00:22:25.040Z,101370.0
2022-11-29T00:27:25.048Z,101370.0
2022-11-29T00:32:25.036Z,101370.0
2022-11-29T00:37:25.047Z,101370.0
2022-11-29T00:42:25.070Z,101380.0
2022-11-29T00:47:25.070Z,101380.0
2022-11-29T00:52:25.057Z,101370.0
2022-11-29T00:57:25.052Z,101370.0
2022-11-29T01:02:25.109Z,101370.0
2022-11-29T01:07:25.077Z,101380.0
2022-11-29T01:12:25.065Z,101370.0
2022-11-29T01:17:25.093Z,101370.0
2022-11-29T01:22:25.064Z,101370.0
2022-11-29T01:27:25.054Z,101380.0
2022-11-29T01:32:25.053Z,101380.0
2022-11-29T01:37:25.075Z,101380.0
2022-11-29T01:42:25.062Z,101390.0
2022-11-29T01:47:25.095Z,101390.0
2022-11-29T01:52:25.106Z,101390.0
2022-11-29T01:57:25.072Z,101390.0
2022-11-29T02:02:25.159Z,101390.0
2022-11-29T02:07:25.127Z,101400.0
2022-11-29T02:12:25.240Z,101410.0
2022-11-29T02:22:25.069Z,101410.0
2022-11-29T02:27:25.090Z,101400.0
2022-11-29T02:32:25.111Z,101410.0
2022-11-29T02:37:25.085Z,101420.0
2022-11-29T02:47:25.088Z,101420.0
2022-11-29T02:52:25.069Z,101430.0
2022-11-29T02:57:25.116Z,101420.0
2022-11-29T03:02:25.134Z,101430.0
2022-11-29T03:07:25.131Z,101430.0
2022-11-29T03:12:25.081Z,101430.0
2022-11-29T03:17:25.082Z,101440.0
2022-11-29T03:22:25.080Z,101440.0
2022-11-29T03:27:25.088Z,101440.0
2022-11-29T03:42:25.093Z,101450.0
2022-11-29T03:47:25.097Z,101460.0
2022-11-29T03:52:25.092Z,101460.0
2022-11-29T03:57:38.444Z,101480.0
2022-11-29T04:02:25.129Z,101490.0
2022-11-29T04:07:25.185Z,101490.0
2022-11-29T04:12:25.102Z,101490.0
2022-11-29T04:17:25.120Z,101500.0
2022-11-29T04:22:25.106Z,101500.0
2022-11-29T04:27:25.102Z,101510.0
2022-11-29T04:32:25.108Z,101500.0
2022-11-29T04:37:25.106Z,101500.0
2022-11-29T04:42:25.113Z,101510.0
2022-11-29T04:47:25.114Z,101510.0
2022-11-29T04:52:25.109Z,101520.0
2022-11-29T04:57:25.117Z,101520.0
2022-11-29T05:02:25.136Z,101530.0
2022-11-29T05:07:25.159Z,101540.0
2022-11-29T05:12:25.107Z,101540.0
2022-11-29T05:17:25.112Z,101550.0
2022-11-29T05:22:25.115Z,101550.0
2022-11-29T05:27:25.117Z,101560.0
2022-11-29T05:32:25.129Z,101560.0
2022-11-29T05:37:25.123Z,101570.0
2022-11-29T05:42:25.128Z,101580.0
2022-11-29T05:47:29.749Z,101570.0
2022-11-29T05:52:25.132Z,101590.0
2022-11-29T05:57:25.125Z,101590.0
2022-11-29T06:02:25.197Z,101600.0
2022-11-29T06:07:25.162Z,101610.0
2022-11-29T06:12:25.139Z,101600.0
2022-11-29T06:17:25.140Z,101610.0
2022-11-29T06:22:25.160Z,101600.0
2022-11-29T06:27:25.145Z,101620.0
2022-11-29T06:37:25.148Z,101620.0
2022-11-29T06:42:25.220Z,101640.0
2022-11-29T06:47:25.163Z,101650.0
2022-11-29T06:52:25.174Z,101650.0
2022-11-29T06:57:25.155Z,101660.0
2022-11-29T07:02:25.213Z,101670.0
2022-11-29T07:07:25.292Z,101680.0
2022-11-29T07:12:25.156Z,101680.0
2022-11-29T07:17:25.158Z,101670.0
2022-11-29T07:22:25.337Z,101680.0
2022-11-29T07:27:25.161Z,101680.0
2022-11-29T07:32:25.164Z,101690.0
2022-11-29T07:37:25.164Z,101700.0
2022-11-29T07:42:25.166Z,101700.0
2022-11-29T07:47:25.169Z,101700.0
2022-11-29T07:52:25.211Z,101710.0
2022-11-29T07:57:25.167Z,101710.0
2022-11-29T08:02:25.254Z,101710.0
2022-11-29T08:07:25.237Z,101710.0
2022-11-29T08:12:25.214Z,101720.0
2022-11-29T08:17:25.182Z,101710.0
2022-11-29T08:22:25.184Z,101720.0
2022-11-29T08:27:25.180Z,101720.0
2022-11-29T08:32:25.194Z,101730.0
2022-11-29T08:37:25.186Z,101730.0
2022-11-29T08:42:25.189Z,101740.0
2022-11-29T08:47:25.242Z,101760.0
2022-11-29T08:52:25.191Z,101760.0
2022-11-29T09:02:25.314Z,101770.0
2022-11-29T09:07:25.253Z,101770.0
2022-11-29T09:12:25.210Z,101780.0
2022-11-29T09:22:25.202Z,101780.0
2022-11-29T09:27:25.202Z,101800.0
2022-11-29T09:32:25.204Z,101800.0
2022-11-29T09:37:25.228Z,101810.0
2022-11-29T09:42:25.321Z,101810.0
2022-11-29T09:47:25.208Z,101830.0
2022-11-29T09:52:25.301Z,101810.0
2022-11-29T09:57:25.214Z,101820.0
2022-11-29T10:02:25.264Z,101820.0
2022-11-29T10:07:25.288Z,101820.0
2022-11-29T10:12:25.211Z,101820.0
2022-11-29T10:17:25.226Z,101830.0
2022-11-29T10:22:25.221Z,101830.0
2022-11-29T10:27:25.235Z,101820.0
2022-11-29T10:32:25.223Z,101830.0
2022-11-29T10:42:25.231Z,101820.0
2022-11-29T10:47:25.222Z,101820.0
2022-11-29T10:52:25.251Z,101820.0
2022-11-29T10:57:25.251Z,101810.0
2022-11-29T11:02:25.256Z,101820.0
2022-11-29T11:07:25.406Z,101820.0
2022-11-29T11:17:25.235Z,101820.0
2022-11-29T11:22:25.238Z,101820.0
2022-11-29T11:32:25.237Z,101830.0
2022-11-29T11:37:25.246Z,101840.0
2022-11-29T11:42:25.250Z,101830.0
2022-11-29T11:47:25.247Z,101850.0
2022-11-29T11:52:25.270Z,101850.0
2022-11-29T11:57:25.250Z,101860.0
2022-11-29T12:02:25.412Z,101860.0
2022-11-29T12:12:25.288Z,101870.0
2022-11-29T12:17:25.255Z,101880.0
2022-11-29T12:22:25.262Z,101870.0
2022-11-29T12:27:25.262Z,101870.0
2022-11-29T12:32:25.262Z,101880.0
2022-11-29T12:37:25.271Z,101880.0
2022-11-29T12:42:25.293Z,101900.0
2022-11-29T12:47:35.726Z,101900.0
2022-11-29T12:52:25.270Z,101900.0
2022-11-29T12:57:25.271Z,101910.0
2022-11-29T13:02:25.325Z,101920.0
2022-11-29T13:07:25.320Z,101920.0
2022-11-29T13:12:25.280Z,101920.0
2022-11-29T13:17:25.282Z,101920.0
2022-11-29T13:22:25.284Z,101930.0
2022-11-29T13:27:25.292Z,101930.0
2022-11-29T13:32:25.286Z,101930.0
2022-11-29T13:37:25.431Z,101940.0
2022-11-29T13:42:25.305Z,101940.0
2022-11-29T13:47:25.309Z,101930.0
2022-11-29T13:52:25.319Z,101930.0
2022-11-29T13:57:25.300Z,101940.0
2022-11-29T14:07:25.640Z,101930.0
2022-11-29T14:12:25.298Z,101920.0
2022-11-29T14:17:25.298Z,101930.0
2022-11-29T14:22:25.324Z,101930.0
2022-11-29T14:27:25.325Z,101930.0
2022-11-29T14:32:25.302Z,101950.0
2022-11-29T14:37:25.317Z,101950.0
2022-11-29T14:42:25.308Z,101960.0
2022-11-29T14:47:25.322Z,101960.0
2022-11-29T14:52:25.318Z,101950.0
2022-11-29T14:57:25.316Z,101940.0
2022-11-29T15:02:25.540Z,101950.0
2022-11-29T15:07:25.666Z,101950.0
2022-11-29T15:12:25.405Z,101950.0
2022-11-29T15:17:25.360Z,101960.0
2022-11-29T15:22:25.319Z,101960.0
2022-11-29T15:27:25.317Z,101970.0
2022-11-29T15:32:25.356Z,101960.0
2022-11-29T15:37:25.329Z,101960.0
2022-11-29T15:42:29.771Z,101960.0
2022-11-29T15:47:25.326Z,101970.0
2022-11-29T15:52:25.325Z,101970.0
2022-11-29T15:57:25.328Z,101970.0
2022-11-29T16:02:25.380Z,101970.0
2022-11-29T16:07:25.393Z,101970.0
2022-11-29T16:12:25.331Z,101980.0
2022-11-29T16:17:25.332Z,101980.0
2022-11-29T16:22:25.338Z,101970.0
2022-11-29T16:27:25.426Z,101980.0
2022-11-29T16:32:25.353Z,101980.0
2022-11-29T16:37:25.344Z,101980.0
2022-11-29T16:42:26.185Z,101990.0
2022-11-29T16:47:25.336Z,101990.0
2022-11-29T16:52:25.349Z,102000.0
2022-11-29T16:57:25.341Z,102000.0
2022-11-29T17:02:25.460Z,102000.0
2022-11-29T17:12:25.358Z,102000.0
2022-11-29T17:17:25.358Z,102010.0
2022-11-29T17:22:25.353Z,102000.0
2022-11-29T17:27:25.358Z,102010.0
2022-11-29T17:32:27.071Z,102010.0
2022-11-29T17:37:25.360Z,102000.0
2022-11-29T17:42:25.360Z,102010.0
2022-11-29T17:47:25.361Z,102010.0
2022-11-29T17:52:25.358Z,102020.0
2022-11-29T17:57:25.359Z,102020.0
2022-11-29T18:02:25.403Z,102030.0
2022-11-29T18:07:25.540Z,102040.0
2022-11-29T18:12:25.365Z,102040.0
2022-11-29T18:17:25.396Z,102030.0
2022-11-29T18:22:25.368Z,102050.0
2022-11-29T18:27:25.374Z,102050.0
2022-11-29T18:32:25.378Z,102050.0
2022-11-29T18:37:54.455Z,102050.0
2022-11-29T18:42:25.379Z,102050.0
2022-11-29T18:47:25.392Z,102050.0
2022-11-29T18:52:25.426Z,102050.0
2022-11-29T18:57:25.381Z,102050.0
2022-11-29T19:02:25.413Z,102050.0
2022-11-29T19:07:25.422Z,102060.0
2022-11-29T19:12:25.389Z,102050.0
2022-11-29T19:22:25.391Z,102060.0
2022-11-29T19:27:25.391Z,102060.0
2022-11-29T19:32:25.395Z,102070.0
2022-11-29T19:37:25.396Z,102070.0
2022-11-29T19:42:25.474Z,102070.0
2022-11-29T19:47:25.412Z,102070.0
2022-11-29T19:52:25.421Z,102070.0
2022-11-29T19:57:25.407Z,102070.0
2022-11-29T20:02:25.544Z,102070.0
2022-11-29T20:07:25.462Z,102080.0
2022-11-29T20:12:25.409Z,102080.0
2022-11-29T20:17:25.409Z,102080.0
2022-11-29T20:22:25.413Z,102080.0
2022-11-29T20:27:25.439Z,102080.0
2022-11-29T20:32:25.422Z,102090.0
2022-11-29T20:37:25.419Z,102090.0
2022-11-29T20:42:25.421Z,102090.0
2022-11-29T20:52:25.421Z,102100.0
2022-11-29T21:07:25.480Z,102110.0
2022-11-29T21:12:25.436Z,102110.0
2022-11-29T21:17:30.222Z,102100.0
2022-11-29T21:22:25.464Z,102110.0
2022-11-29T21:27:38.788Z,102100.0
2022-11-29T21:32:25.441Z,102110.0
2022-11-29T21:37:25.437Z,102110.0
2022-11-29T21:42:25.459Z,102110.0
2022-11-29T21:47:25.438Z,102110.0
2022-11-29T21:52:25.446Z,102120.0
2022-11-29T22:02:25.548Z,102130.0
2022-11-29T22:07:25.532Z,102130.0
2022-11-29T22:12:34.103Z,102130.0
2022-11-29T22:17:25.446Z,102130.0
2022-11-29T22:22:28.082Z,102140.0
2022-11-29T22:32:25.448Z,102130.0
2022-11-29T22:37:25.456Z,102130.0
2022-11-29T22:42:25.507Z,102130.0
2022-11-29T22:47:25.457Z,102130.0
2022-11-29T22:52:25.458Z,102130.0
2022-11-29T22:57:25.475Z,102140.0
2022-11-29T23:02:25.634Z,102140.0
2022-11-29T23:07:25.502Z,102140.0
2022-11-29T23:12:25.480Z,102160.0
2022-11-29T23:17:25.471Z,102160.0
2022-11-29T23:22:25.468Z,102150.0
2022-11-29T23:27:25.477Z,102150.0
2022-11-29T23:32:25.519Z,102160.0
2022-11-29T23:37:25.487Z,102160.0
2022-11-29T23:42:25.481Z,102160.0
2022-11-29T23:47:25.478Z,102150.0
2022-11-29T23:52:25.483Z,102160.0
2022-11-29T23:57:25.526Z,102160.0
